CheckWX is a tool to help pilots better visualize weather data.  It is not intended as a substitute for an official pre-flight weather briefing.

06:08:51 UTC

KRNV METAR
Cleveland Municipal Airport
Cleveland, Mississippi, USA
Current

34 mins ago

KRNV 230535Z AUTO 00000KT 10SM CLR 16/11 A3009 RMK AO2 T01600113
Observed
Apr-23 @ 05:35 UTC
Visibility
10 SM
Flight Rules
VFR
Cloud Levels
  • Clear skies
Temperature
16°C / 61°F
Dewpoint
11°C / 52°F
Humidity
72%
Altimeter
30.09" Hg
Pressure
1018.92 hPa
Previous

54 mins ago

KRNV 230515Z AUTO 24003KT 10SM CLR 17/11 A3009 RMK AO2 T01650112
Observed
Apr-23 @ 05:15 UTC
Wind
  • 240° at 3 KTS
Visibility
10 SM
Flight Rules
VFR
Cloud Levels
  • Clear skies
Temperature
17°C / 63°F
Dewpoint
11°C / 52°F
Humidity
68%
Altimeter
30.09" Hg
Pressure
1018.92 hPa
Previous

1 hour ago

KRNV 230455Z AUTO 21004KT 10SM CLR 18/11 A3008 RMK AO2 T01750110
Observed
Apr-23 @ 04:55 UTC
Wind
  • 210° at 4 KTS
Visibility
10 SM
Flight Rules
VFR
Cloud Levels
  • Clear skies
Temperature
18°C / 64°F
Dewpoint
11°C / 52°F
Humidity
64%
Altimeter
30.08" Hg
Pressure
1018.62 hPa